sensor_id;sensor_type;location;lat;lon;timestamp;P1;durP1;ratioP1;P2;durP2;ratioP2
14098;SDS011;7126;48.458;7.930;2022-08-05T00:01:00;1.98;;;1.90;;
14098;SDS011;7126;48.458;7.930;2022-08-05T00:03:26;3.53;;;2.00;;
14098;SDS011;7126;48.458;7.930;2022-08-05T00:05:52;1.50;;;1.50;;
14098;SDS011;7126;48.458;7.930;2022-08-05T00:08:17;1.70;;;1.70;;
14098;SDS011;7126;48.458;7.930;2022-08-05T00:10:43;1.65;;;1.60;;
14098;SDS011;7126;48.458;7.930;2022-08-05T00:13:09;1.63;;;1.63;;
14098;SDS011;7126;48.458;7.930;2022-08-05T00:15:35;1.70;;;1.70;;
14098;SDS011;7126;48.458;7.930;2022-08-05T00:18:00;1.63;;;1.60;;
14098;SDS011;7126;48.458;7.930;2022-08-05T00:20:26;1.60;;;1.50;;
14098;SDS011;7126;48.458;7.930;2022-08-05T00:22:51;1.60;;;1.60;;
14098;SDS011;7126;48.458;7.930;2022-08-05T00:25:17;1.52;;;1.45;;
14098;SDS011;7126;48.458;7.930;2022-08-05T00:27:42;2.80;;;1.50;;
14098;SDS011;7126;48.458;7.930;2022-08-05T00:30:08;1.60;;;1.60;;
14098;SDS011;7126;48.458;7.930;2022-08-05T00:32:34;1.80;;;1.80;;
14098;SDS011;7126;48.458;7.930;2022-08-05T00:35:00;1.80;;;1.70;;
14098;SDS011;7126;48.458;7.930;2022-08-05T00:37:25;1.25;;;1.25;;
14098;SDS011;7126;48.458;7.930;2022-08-05T00:39:51;1.15;;;1.15;;
14098;SDS011;7126;48.458;7.930;2022-08-05T00:42:28;1.40;;;1.40;;
14098;SDS011;7126;48.458;7.930;2022-08-05T00:44:57;1.67;;;1.58;;
14098;SDS011;7126;48.458;7.930;2022-08-05T00:47:23;3.03;;;1.70;;
14098;SDS011;7126;48.458;7.930;2022-08-05T00:49:48;1.60;;;1.60;;
14098;SDS011;7126;48.458;7.930;2022-08-05T00:52:14;1.58;;;1.48;;
14098;SDS011;7126;48.458;7.930;2022-08-05T00:54:39;1.95;;;1.85;;
14098;SDS011;7126;48.458;7.930;2022-08-05T00:57:05;1.42;;;1.42;;
14098;SDS011;7126;48.458;7.930;2022-08-05T00:59:31;1.38;;;1.38;;
14098;SDS011;7126;48.458;7.930;2022-08-05T01:01:56;1.58;;;1.58;;
14098;SDS011;7126;48.458;7.930;2022-08-05T01:04:22;1.80;;;1.80;;
14098;SDS011;7126;48.458;7.930;2022-08-05T01:06:47;1.92;;;1.83;;
14098;SDS011;7126;48.458;7.930;2022-08-05T01:09:13;2.28;;;2.05;;
14098;SDS011;7126;48.458;7.930;2022-08-05T01:11:38;1.92;;;1.83;;
14098;SDS011;7126;48.458;7.930;2022-08-05T01:14:09;1.50;;;1.40;;
14098;SDS011;7126;48.458;7.930;2022-08-05T01:17:05;1.90;;;1.90;;
14098;SDS011;7126;48.458;7.930;2022-08-05T01:19:34;1.90;;;1.80;;
14098;SDS011;7126;48.458;7.930;2022-08-05T01:22:10;1.70;;;1.70;;
14098;SDS011;7126;48.458;7.930;2022-08-05T01:27:28;1.35;;;1.35;;
14098;SDS011;7126;48.458;7.930;2022-08-05T01:30:14;1.77;;;1.70;;
14098;SDS011;7126;48.458;7.930;2022-08-05T01:32:41;1.73;;;1.73;;
14098;SDS011;7126;48.458;7.930;2022-08-05T01:35:15;1.60;;;1.58;;
14098;SDS011;7126;48.458;7.930;2022-08-05T01:37:44;1.85;;;1.80;;
14098;SDS011;7126;48.458;7.930;2022-08-05T01:40:13;1.67;;;1.58;;
14098;SDS011;7126;48.458;7.930;2022-08-05T01:42:41;1.60;;;1.60;;
14098;SDS011;7126;48.458;7.930;2022-08-05T01:45:09;1.77;;;1.77;;
14098;SDS011;7126;48.458;7.930;2022-08-05T01:47:37;1.73;;;1.73;;
14098;SDS011;7126;48.458;7.930;2022-08-05T01:50:06;1.55;;;1.50;;
14098;SDS011;7126;48.458;7.930;2022-08-05T01:52:35;1.73;;;1.67;;
14098;SDS011;7126;48.458;7.930;2022-08-05T01:55:04;3.20;;;2.10;;
14098;SDS011;7126;48.458;7.930;2022-08-05T01:57:34;1.80;;;1.70;;
14098;SDS011;7126;48.458;7.930;2022-08-05T02:00:06;3.17;;;2.20;;
14098;SDS011;7126;48.458;7.930;2022-08-05T02:02:37;1.80;;;1.80;;
14098;SDS011;7126;48.458;7.930;2022-08-05T02:05:08;1.80;;;1.80;;
14098;SDS011;7126;48.458;7.930;2022-08-05T02:07:37;2.10;;;1.92;;
14098;SDS011;7126;48.458;7.930;2022-08-05T02:10:03;1.75;;;1.75;;
14098;SDS011;7126;48.458;7.930;2022-08-05T02:12:36;1.85;;;1.75;;
14098;SDS011;7126;48.458;7.930;2022-08-05T02:17:51;1.42;;;1.42;;
14098;SDS011;7126;48.458;7.930;2022-08-05T02:20:23;2.78;;;1.80;;
14098;SDS011;7126;48.458;7.930;2022-08-05T02:22:56;1.58;;;1.50;;
14098;SDS011;7126;48.458;7.930;2022-08-05T02:25:25;1.70;;;1.70;;
14098;SDS011;7126;48.458;7.930;2022-08-05T02:27:54;1.50;;;1.50;;
14098;SDS011;7126;48.458;7.930;2022-08-05T02:30:21;1.67;;;1.52;;
14098;SDS011;7126;48.458;7.930;2022-08-05T02:32:50;2.00;;;1.90;;
14098;SDS011;7126;48.458;7.930;2022-08-05T02:35:19;1.83;;;1.75;;
14098;SDS011;7126;48.458;7.930;2022-08-05T02:37:46;1.85;;;1.80;;
14098;SDS011;7126;48.458;7.930;2022-08-05T02:40:15;1.83;;;1.83;;
14098;SDS011;7126;48.458;7.930;2022-08-05T02:42:42;1.45;;;1.45;;
14098;SDS011;7126;48.458;7.930;2022-08-05T02:45:10;1.67;;;1.67;;
14098;SDS011;7126;48.458;7.930;2022-08-05T02:47:36;1.88;;;1.83;;
14098;SDS011;7126;48.458;7.930;2022-08-05T02:50:04;1.85;;;1.85;;
14098;SDS011;7126;48.458;7.930;2022-08-05T02:52:31;1.70;;;1.70;;
14098;SDS011;7126;48.458;7.930;2022-08-05T02:54:58;1.60;;;1.60;;
14098;SDS011;7126;48.458;7.930;2022-08-05T02:57:25;1.90;;;1.80;;
14098;SDS011;7126;48.458;7.930;2022-08-05T02:59:51;1.60;;;1.60;;
14098;SDS011;7126;48.458;7.930;2022-08-05T03:02:23;1.70;;;1.60;;
14098;SDS011;7126;48.458;7.930;2022-08-05T03:04:53;1.45;;;1.45;;
14098;SDS011;7126;48.458;7.930;2022-08-05T03:07:21;2.47;;;2.28;;
14098;SDS011;7126;48.458;7.930;2022-08-05T03:09:48;1.45;;;1.45;;
14098;SDS011;7126;48.458;7.930;2022-08-05T03:12:32;3.20;;;1.83;;
14098;SDS011;7126;48.458;7.930;2022-08-05T03:14:59;1.60;;;1.50;;
14098;SDS011;7126;48.458;7.930;2022-08-05T03:17:26;1.42;;;1.42;;
14098;SDS011;7126;48.458;7.930;2022-08-05T03:19:51;1.50;;;1.40;;
14098;SDS011;7126;48.458;7.930;2022-08-05T03:22:17;1.67;;;1.60;;
14098;SDS011;7126;48.458;7.930;2022-08-05T03:24:43;1.70;;;1.70;;
14098;SDS011;7126;48.458;7.930;2022-08-05T03:27:09;1.90;;;1.90;;
14098;SDS011;7126;48.458;7.930;2022-08-05T03:29:36;2.10;;;2.00;;
14098;SDS011;7126;48.458;7.930;2022-08-05T03:32:02;1.70;;;1.60;;
14098;SDS011;7126;48.458;7.930;2022-08-05T03:34:29;1.60;;;1.60;;
14098;SDS011;7126;48.458;7.930;2022-08-05T03:36:56;1.80;;;1.70;;
14098;SDS011;7126;48.458;7.930;2022-08-05T03:39:22;1.48;;;1.48;;
14098;SDS011;7126;48.458;7.930;2022-08-05T03:41:47;1.90;;;1.80;;
14098;SDS011;7126;48.458;7.930;2022-08-05T03:44:13;1.83;;;1.73;;
14098;SDS011;7126;48.458;7.930;2022-08-05T03:46:38;6.22;;;3.47;;
14098;SDS011;7126;48.458;7.930;2022-08-05T03:49:04;3.30;;;2.20;;
14098;SDS011;7126;48.458;7.930;2022-08-05T03:51:54;2.58;;;2.40;;
14098;SDS011;7126;48.458;7.930;2022-08-05T03:54:30;1.95;;;1.85;;
14098;SDS011;7126;48.458;7.930;2022-08-05T03:57:01;1.50;;;1.40;;
14098;SDS011;7126;48.458;7.930;2022-08-05T03:59:33;2.03;;;1.77;;
14098;SDS011;7126;48.458;7.930;2022-08-05T04:02:04;1.60;;;1.50;;
14098;SDS011;7126;48.458;7.930;2022-08-05T04:04:31;1.50;;;1.50;;
14098;SDS011;7126;48.458;7.930;2022-08-05T04:06:59;1.20;;;1.20;;
14098;SDS011;7126;48.458;7.930;2022-08-05T04:09:25;1.90;;;1.80;;
14098;SDS011;7126;48.458;7.930;2022-08-05T04:11:53;2.00;;;2.00;;
14098;SDS011;7126;48.458;7.930;2022-08-05T04:14:19;1.50;;;1.50;;
14098;SDS011;7126;48.458;7.930;2022-08-05T04:16:46;1.65;;;1.55;;
14098;SDS011;7126;48.458;7.930;2022-08-05T04:19:12;1.50;;;1.45;;
14098;SDS011;7126;48.458;7.930;2022-08-05T04:21:38;1.23;;;1.23;;
14098;SDS011;7126;48.458;7.930;2022-08-05T04:24:04;1.90;;;1.83;;
14098;SDS011;7126;48.458;7.930;2022-08-05T04:26:30;1.27;;;1.23;;
14098;SDS011;7126;48.458;7.930;2022-08-05T04:28:56;1.63;;;1.52;;
14098;SDS011;7126;48.458;7.930;2022-08-05T04:31:21;1.10;;;1.10;;
14098;SDS011;7126;48.458;7.930;2022-08-05T04:33:47;1.35;;;1.35;;
14098;SDS011;7126;48.458;7.930;2022-08-05T04:36:13;1.55;;;1.55;;
14098;SDS011;7126;48.458;7.930;2022-08-05T04:38:41;2.05;;;1.35;;
14098;SDS011;7126;48.458;7.930;2022-08-05T04:41:07;1.10;;;1.10;;
14098;SDS011;7126;48.458;7.930;2022-08-05T04:43:32;1.15;;;1.15;;
14098;SDS011;7126;48.458;7.930;2022-08-05T04:45:58;1.27;;;1.27;;
14098;SDS011;7126;48.458;7.930;2022-08-05T04:48:24;1.23;;;1.23;;
14098;SDS011;7126;48.458;7.930;2022-08-05T04:50:49;3.45;;;1.15;;
14098;SDS011;7126;48.458;7.930;2022-08-05T04:53:15;1.00;;;1.00;;
14098;SDS011;7126;48.458;7.930;2022-08-05T04:55:42;1.10;;;1.10;;
14098;SDS011;7126;48.458;7.930;2022-08-05T04:58:09;1.20;;;1.08;;
14098;SDS011;7126;48.458;7.930;2022-08-05T05:00:36;1.00;;;1.00;;
14098;SDS011;7126;48.458;7.930;2022-08-05T05:03:04;1.30;;;1.20;;
14098;SDS011;7126;48.458;7.930;2022-08-05T05:05:30;0.90;;;0.90;;
14098;SDS011;7126;48.458;7.930;2022-08-05T05:08:00;1.23;;;1.23;;
14098;SDS011;7126;48.458;7.930;2022-08-05T05:10:37;1.15;;;1.15;;
14098;SDS011;7126;48.458;7.930;2022-08-05T05:13:10;1.10;;;1.10;;
14098;SDS011;7126;48.458;7.930;2022-08-05T05:15:37;0.82;;;0.82;;
14098;SDS011;7126;48.458;7.930;2022-08-05T05:18:03;1.17;;;1.17;;
14098;SDS011;7126;48.458;7.930;2022-08-05T05:20:29;1.10;;;1.10;;
14098;SDS011;7126;48.458;7.930;2022-08-05T05:22:56;3.30;;;1.48;;
14098;SDS011;7126;48.458;7.930;2022-08-05T05:25:22;1.15;;;1.15;;
14098;SDS011;7126;48.458;7.930;2022-08-05T05:27:48;1.02;;;1.02;;
14098;SDS011;7126;48.458;7.930;2022-08-05T05:30:16;1.45;;;1.35;;
14098;SDS011;7126;48.458;7.930;2022-08-05T05:32:42;1.17;;;1.17;;
14098;SDS011;7126;48.458;7.930;2022-08-05T05:35:08;1.30;;;1.25;;
14098;SDS011;7126;48.458;7.930;2022-08-05T05:37:44;1.10;;;0.98;;
14098;SDS011;7126;48.458;7.930;2022-08-05T05:40:22;1.00;;;1.00;;
14098;SDS011;7126;48.458;7.930;2022-08-05T05:42:48;1.30;;;1.20;;
14098;SDS011;7126;48.458;7.930;2022-08-05T05:45:14;0.80;;;0.80;;
14098;SDS011;7126;48.458;7.930;2022-08-05T05:47:41;1.63;;;1.10;;
14098;SDS011;7126;48.458;7.930;2022-08-05T05:50:07;1.10;;;1.10;;
14098;SDS011;7126;48.458;7.930;2022-08-05T05:52:34;0.85;;;0.85;;
14098;SDS011;7126;48.458;7.930;2022-08-05T05:55:03;1.50;;;1.40;;
14098;SDS011;7126;48.458;7.930;2022-08-05T05:57:34;2.67;;;1.05;;
14098;SDS011;7126;48.458;7.930;2022-08-05T06:00:01;2.05;;;1.10;;
14098;SDS011;7126;48.458;7.930;2022-08-05T06:02:27;1.25;;;1.25;;
14098;SDS011;7126;48.458;7.930;2022-08-05T06:04:53;1.20;;;1.10;;
14098;SDS011;7126;48.458;7.930;2022-08-05T06:07:18;1.00;;;1.00;;
14098;SDS011;7126;48.458;7.930;2022-08-05T06:09:44;0.88;;;0.88;;
14098;SDS011;7126;48.458;7.930;2022-08-05T06:12:10;1.20;;;1.10;;
14098;SDS011;7126;48.458;7.930;2022-08-05T06:14:35;0.93;;;0.93;;
14098;SDS011;7126;48.458;7.930;2022-08-05T06:17:01;1.17;;;1.17;;
14098;SDS011;7126;48.458;7.930;2022-08-05T06:19:27;1.00;;;1.00;;
14098;SDS011;7126;48.458;7.930;2022-08-05T06:21:53;1.30;;;1.20;;
14098;SDS011;7126;48.458;7.930;2022-08-05T06:24:18;1.38;;;1.38;;
14098;SDS011;7126;48.458;7.930;2022-08-05T06:26:44;1.00;;;1.00;;
14098;SDS011;7126;48.458;7.930;2022-08-05T06:29:10;0.90;;;0.90;;
14098;SDS011;7126;48.458;7.930;2022-08-05T06:31:35;1.17;;;1.17;;
14098;SDS011;7126;48.458;7.930;2022-08-05T06:34:01;1.27;;;1.27;;
14098;SDS011;7126;48.458;7.930;2022-08-05T06:36:27;1.33;;;1.33;;
14098;SDS011;7126;48.458;7.930;2022-08-05T06:38:53;1.10;;;1.05;;
14098;SDS011;7126;48.458;7.930;2022-08-05T06:41:19;0.98;;;0.98;;
14098;SDS011;7126;48.458;7.930;2022-08-05T06:43:45;1.67;;;1.20;;
14098;SDS011;7126;48.458;7.930;2022-08-05T06:46:11;1.50;;;1.50;;
14098;SDS011;7126;48.458;7.930;2022-08-05T06:48:37;1.17;;;1.17;;
14098;SDS011;7126;48.458;7.930;2022-08-05T06:51:03;1.27;;;1.17;;
14098;SDS011;7126;48.458;7.930;2022-08-05T06:53:29;1.33;;;1.33;;
14098;SDS011;7126;48.458;7.930;2022-08-05T06:55:58;1.10;;;1.10;;
14098;SDS011;7126;48.458;7.930;2022-08-05T06:58:25;1.13;;;1.13;;
14098;SDS011;7126;48.458;7.930;2022-08-05T07:00:51;1.10;;;1.10;;
14098;SDS011;7126;48.458;7.930;2022-08-05T07:03:17;0.98;;;0.98;;
14098;SDS011;7126;48.458;7.930;2022-08-05T07:05:43;0.95;;;0.95;;
14098;SDS011;7126;48.458;7.930;2022-08-05T07:08:09;1.65;;;1.55;;
14098;SDS011;7126;48.458;7.930;2022-08-05T07:10:34;1.38;;;1.00;;
14098;SDS011;7126;48.458;7.930;2022-08-05T07:13:00;0.90;;;0.90;;
14098;SDS011;7126;48.458;7.930;2022-08-05T07:15:44;1.45;;;1.05;;
14098;SDS011;7126;48.458;7.930;2022-08-05T07:18:28;0.95;;;0.95;;
14098;SDS011;7126;48.458;7.930;2022-08-05T07:20:54;1.10;;;1.10;;
14098;SDS011;7126;48.458;7.930;2022-08-05T07:23:20;1.05;;;1.05;;
14098;SDS011;7126;48.458;7.930;2022-08-05T07:25:45;1.20;;;1.20;;
14098;SDS011;7126;48.458;7.930;2022-08-05T07:28:11;1.13;;;1.13;;
14098;SDS011;7126;48.458;7.930;2022-08-05T07:30:36;1.20;;;1.20;;
14098;SDS011;7126;48.458;7.930;2022-08-05T07:33:03;1.17;;;1.17;;
14098;SDS011;7126;48.458;7.930;2022-08-05T07:35:30;1.15;;;1.15;;
14098;SDS011;7126;48.458;7.930;2022-08-05T07:37:56;0.93;;;0.93;;
14098;SDS011;7126;48.458;7.930;2022-08-05T07:40:21;1.67;;;1.42;;
14098;SDS011;7126;48.458;7.930;2022-08-05T07:42:47;1.10;;;1.10;;
14098;SDS011;7126;48.458;7.930;2022-08-05T07:45:13;1.00;;;1.00;;
14098;SDS011;7126;48.458;7.930;2022-08-05T07:47:39;3.13;;;1.20;;
14098;SDS011;7126;48.458;7.930;2022-08-05T07:50:05;1.10;;;1.10;;
14098;SDS011;7126;48.458;7.930;2022-08-05T07:52:36;1.05;;;1.05;;
14098;SDS011;7126;48.458;7.930;2022-08-05T07:55:05;1.55;;;1.45;;
14098;SDS011;7126;48.458;7.930;2022-08-05T07:57:31;0.98;;;0.80;;
14098;SDS011;7126;48.458;7.930;2022-08-05T07:59:57;1.13;;;1.13;;
14098;SDS011;7126;48.458;7.930;2022-08-05T08:02:27;1.27;;;1.27;;
14098;SDS011;7126;48.458;7.930;2022-08-05T08:04:53;0.93;;;0.93;;
14098;SDS011;7126;48.458;7.930;2022-08-05T08:07:20;1.05;;;1.05;;
14098;SDS011;7126;48.458;7.930;2022-08-05T08:09:46;1.30;;;1.30;;
14098;SDS011;7126;48.458;7.930;2022-08-05T08:12:13;1.00;;;1.00;;
14098;SDS011;7126;48.458;7.930;2022-08-05T08:14:39;1.02;;;1.02;;
14098;SDS011;7126;48.458;7.930;2022-08-05T08:17:06;1.20;;;1.20;;
14098;SDS011;7126;48.458;7.930;2022-08-05T08:19:35;1.20;;;1.20;;
14098;SDS011;7126;48.458;7.930;2022-08-05T08:22:01;1.38;;;1.10;;
14098;SDS011;7126;48.458;7.930;2022-08-05T08:24:26;0.95;;;0.95;;
14098;SDS011;7126;48.458;7.930;2022-08-05T08:26:53;1.02;;;0.95;;
14098;SDS011;7126;48.458;7.930;2022-08-05T08:29:18;2.05;;;1.00;;
14098;SDS011;7126;48.458;7.930;2022-08-05T08:31:44;0.90;;;0.90;;
14098;SDS011;7126;48.458;7.930;2022-08-05T08:34:10;1.17;;;1.17;;
14098;SDS011;7126;48.458;7.930;2022-08-05T08:36:35;1.05;;;1.05;;
14098;SDS011;7126;48.458;7.930;2022-08-05T08:39:01;1.10;;;1.10;;
14098;SDS011;7126;48.458;7.930;2022-08-05T08:41:26;2.08;;;1.10;;
14098;SDS011;7126;48.458;7.930;2022-08-05T08:43:56;2.63;;;1.60;;
14098;SDS011;7126;48.458;7.930;2022-08-05T08:46:22;5.05;;;1.42;;
14098;SDS011;7126;48.458;7.930;2022-08-05T08:48:51;1.00;;;1.00;;
14098;SDS011;7126;48.458;7.930;2022-08-05T08:51:18;1.17;;;1.17;;
14098;SDS011;7126;48.458;7.930;2022-08-05T08:53:45;1.10;;;1.10;;
14098;SDS011;7126;48.458;7.930;2022-08-05T08:56:12;1.30;;;1.30;;
14098;SDS011;7126;48.458;7.930;2022-08-05T08:58:39;1.23;;;1.23;;
14098;SDS011;7126;48.458;7.930;2022-08-05T09:01:06;0.95;;;0.95;;
14098;SDS011;7126;48.458;7.930;2022-08-05T09:03:32;1.55;;;1.10;;
14098;SDS011;7126;48.458;7.930;2022-08-05T09:05:59;0.90;;;0.90;;
14098;SDS011;7126;48.458;7.930;2022-08-05T09:08:24;0.93;;;0.93;;
14098;SDS011;7126;48.458;7.930;2022-08-05T09:10:50;0.90;;;0.90;;
14098;SDS011;7126;48.458;7.930;2022-08-05T09:13:16;1.02;;;1.02;;
14098;SDS011;7126;48.458;7.930;2022-08-05T09:15:43;0.90;;;0.90;;
14098;SDS011;7126;48.458;7.930;2022-08-05T09:18:09;2.47;;;1.05;;
14098;SDS011;7126;48.458;7.930;2022-08-05T09:20:35;1.55;;;1.45;;
14098;SDS011;7126;48.458;7.930;2022-08-05T09:25:38;0.90;;;0.90;;
14098;SDS011;7126;48.458;7.930;2022-08-05T09:28:08;3.17;;;1.40;;
14098;SDS011;7126;48.458;7.930;2022-08-05T09:30:41;1.42;;;0.85;;
14098;SDS011;7126;48.458;7.930;2022-08-05T09:33:19;0.90;;;0.90;;
14098;SDS011;7126;48.458;7.930;2022-08-05T09:35:52;1.10;;;1.10;;
14098;SDS011;7126;48.458;7.930;2022-08-05T09:38:22;1.15;;;1.13;;
14098;SDS011;7126;48.458;7.930;2022-08-05T09:40:48;0.95;;;0.95;;
14098;SDS011;7126;48.458;7.930;2022-08-05T09:43:27;1.00;;;1.00;;
14098;SDS011;7126;48.458;7.930;2022-08-05T09:45:53;1.05;;;1.05;;
14098;SDS011;7126;48.458;7.930;2022-08-05T09:50:53;1.20;;;1.15;;
14098;SDS011;7126;48.458;7.930;2022-08-05T09:53:20;2.05;;;1.20;;
14098;SDS011;7126;48.458;7.930;2022-08-05T09:55:49;0.90;;;0.90;;
14098;SDS011;7126;48.458;7.930;2022-08-05T09:58:16;1.17;;;1.17;;
14098;SDS011;7126;48.458;7.930;2022-08-05T10:00:52;1.10;;;1.10;;
14098;SDS011;7126;48.458;7.930;2022-08-05T10:03:19;2.60;;;1.10;;
14098;SDS011;7126;48.458;7.930;2022-08-05T10:05:45;0.80;;;0.80;;
14098;SDS011;7126;48.458;7.930;2022-08-05T10:08:10;1.10;;;1.10;;
14098;SDS011;7126;48.458;7.930;2022-08-05T10:13:08;1.00;;;1.00;;
14098;SDS011;7126;48.458;7.930;2022-08-05T10:15:42;1.20;;;1.20;;
14098;SDS011;7126;48.458;7.930;2022-08-05T10:18:16;1.42;;;1.40;;
14098;SDS011;7126;48.458;7.930;2022-08-05T10:23:30;1.10;;;1.10;;
14098;SDS011;7126;48.458;7.930;2022-08-05T10:25:58;0.85;;;0.85;;
14098;SDS011;7126;48.458;7.930;2022-08-05T10:28:26;4.30;;;1.35;;
14098;SDS011;7126;48.458;7.930;2022-08-05T10:30:53;1.25;;;1.23;;
14098;SDS011;7126;48.458;7.930;2022-08-05T10:33:20;1.10;;;1.10;;
14098;SDS011;7126;48.458;7.930;2022-08-05T10:35:48;0.90;;;0.90;;
14098;SDS011;7126;48.458;7.930;2022-08-05T10:38:14;1.10;;;1.10;;
14098;SDS011;7126;48.458;7.930;2022-08-05T10:45:42;4.07;;;1.17;;
14098;SDS011;7126;48.458;7.930;2022-08-05T10:51:06;1.20;;;1.10;;
14098;SDS011;7126;48.458;7.930;2022-08-05T10:53:37;0.90;;;0.90;;
14098;SDS011;7126;48.458;7.930;2022-08-05T10:56:04;1.23;;;1.23;;
14098;SDS011;7126;48.458;7.930;2022-08-05T10:58:32;1.00;;;1.00;;
14098;SDS011;7126;48.458;7.930;2022-08-05T11:01:02;0.88;;;0.88;;
14098;SDS011;7126;48.458;7.930;2022-08-05T11:03:28;3.60;;;0.90;;
14098;SDS011;7126;48.458;7.930;2022-08-05T11:11:47;1.10;;;1.10;;
14098;SDS011;7126;48.458;7.930;2022-08-05T11:14:21;1.10;;;1.10;;
14098;SDS011;7126;48.458;7.930;2022-08-05T11:19:54;1.00;;;1.00;;
14098;SDS011;7126;48.458;7.930;2022-08-05T11:33:30;1.15;;;1.05;;
14098;SDS011;7126;48.458;7.930;2022-08-05T11:35:59;0.95;;;0.95;;
14098;SDS011;7126;48.458;7.930;2022-08-05T11:41:16;1.30;;;1.30;;
14098;SDS011;7126;48.458;7.930;2022-08-05T11:46:45;2.60;;;1.30;;
14098;SDS011;7126;48.458;7.930;2022-08-05T11:49:19;1.00;;;1.00;;
14098;SDS011;7126;48.458;7.930;2022-08-05T11:51:47;1.30;;;1.30;;
14098;SDS011;7126;48.458;7.930;2022-08-05T11:54:20;1.25;;;1.25;;
14098;SDS011;7126;48.458;7.930;2022-08-05T11:56:52;1.73;;;1.30;;
14098;SDS011;7126;48.458;7.930;2022-08-05T11:59:22;1.23;;;1.23;;
14098;SDS011;7126;48.458;7.930;2022-08-05T12:01:53;1.30;;;1.30;;
14098;SDS011;7126;48.458;7.930;2022-08-05T12:04:28;1.58;;;1.48;;
14098;SDS011;7126;48.458;7.930;2022-08-05T12:07:01;1.05;;;1.05;;
14098;SDS011;7126;48.458;7.930;2022-08-05T12:09:28;1.55;;;1.55;;
14098;SDS011;7126;48.458;7.930;2022-08-05T12:11:59;1.20;;;1.20;;
14098;SDS011;7126;48.458;7.930;2022-08-05T12:14:25;1.10;;;1.10;;
14098;SDS011;7126;48.458;7.930;2022-08-05T12:17:05;0.98;;;0.98;;
14098;SDS011;7126;48.458;7.930;2022-08-05T12:19:49;1.25;;;1.25;;
14098;SDS011;7126;48.458;7.930;2022-08-05T12:22:17;1.40;;;1.40;;
14098;SDS011;7126;48.458;7.930;2022-08-05T12:24:47;1.45;;;1.33;;
14098;SDS011;7126;48.458;7.930;2022-08-05T12:27:23;1.20;;;1.20;;
14098;SDS011;7126;48.458;7.930;2022-08-05T12:30:00;1.30;;;1.30;;
14098;SDS011;7126;48.458;7.930;2022-08-05T12:32:30;1.15;;;1.15;;
14098;SDS011;7126;48.458;7.930;2022-08-05T12:34:57;2.25;;;1.52;;
14098;SDS011;7126;48.458;7.930;2022-08-05T12:37:22;1.15;;;1.15;;
14098;SDS011;7126;48.458;7.930;2022-08-05T12:39:49;1.40;;;1.40;;
14098;SDS011;7126;48.458;7.930;2022-08-05T12:42:16;1.23;;;1.23;;
14098;SDS011;7126;48.458;7.930;2022-08-05T12:44:43;1.33;;;1.33;;
14098;SDS011;7126;48.458;7.930;2022-08-05T12:47:10;1.30;;;1.30;;
14098;SDS011;7126;48.458;7.930;2022-08-05T12:49:37;1.17;;;1.17;;
14098;SDS011;7126;48.458;7.930;2022-08-05T12:52:11;2.63;;;1.13;;
14098;SDS011;7126;48.458;7.930;2022-08-05T12:54:44;1.50;;;1.40;;
14098;SDS011;7126;48.458;7.930;2022-08-05T12:57:11;1.42;;;1.42;;
14098;SDS011;7126;48.458;7.930;2022-08-05T12:59:45;1.58;;;1.50;;
14098;SDS011;7126;48.458;7.930;2022-08-05T13:02:11;1.00;;;1.00;;
14098;SDS011;7126;48.458;7.930;2022-08-05T13:04:39;1.63;;;1.50;;
14098;SDS011;7126;48.458;7.930;2022-08-05T13:07:08;1.30;;;1.30;;
14098;SDS011;7126;48.458;7.930;2022-08-05T13:09:37;1.42;;;1.33;;
14098;SDS011;7126;48.458;7.930;2022-08-05T13:12:08;1.30;;;1.30;;
14098;SDS011;7126;48.458;7.930;2022-08-05T13:14:36;1.30;;;1.30;;
14098;SDS011;7126;48.458;7.930;2022-08-05T13:22:25;1.30;;;1.30;;
14098;SDS011;7126;48.458;7.930;2022-08-05T13:24:51;2.30;;;1.60;;
14098;SDS011;7126;48.458;7.930;2022-08-05T13:27:24;1.25;;;1.25;;
14098;SDS011;7126;48.458;7.930;2022-08-05T13:29:53;1.50;;;1.50;;
14098;SDS011;7126;48.458;7.930;2022-08-05T13:32:19;1.73;;;1.65;;
14098;SDS011;7126;48.458;7.930;2022-08-05T13:34:45;1.58;;;1.48;;
14098;SDS011;7126;48.458;7.930;2022-08-05T13:37:11;1.20;;;1.20;;
14098;SDS011;7126;48.458;7.930;2022-08-05T13:39:37;1.63;;;1.63;;
14098;SDS011;7126;48.458;7.930;2022-08-05T13:42:02;1.17;;;1.17;;
14098;SDS011;7126;48.458;7.930;2022-08-05T13:44:28;1.65;;;1.65;;
14098;SDS011;7126;48.458;7.930;2022-08-05T13:46:54;1.10;;;1.10;;
14098;SDS011;7126;48.458;7.930;2022-08-05T13:49:19;1.38;;;1.38;;
14098;SDS011;7126;48.458;7.930;2022-08-05T13:51:45;1.30;;;1.30;;
14098;SDS011;7126;48.458;7.930;2022-08-05T13:54:11;1.38;;;1.38;;
14098;SDS011;7126;48.458;7.930;2022-08-05T13:56:36;6.55;;;1.25;;
14098;SDS011;7126;48.458;7.930;2022-08-05T13:59:02;1.60;;;1.50;;
14098;SDS011;7126;48.458;7.930;2022-08-05T14:01:28;1.20;;;1.20;;
14098;SDS011;7126;48.458;7.930;2022-08-05T14:03:53;1.30;;;1.30;;
14098;SDS011;7126;48.458;7.930;2022-08-05T14:06:37;1.30;;;1.30;;
14098;SDS011;7126;48.458;7.930;2022-08-05T14:09:03;3.20;;;1.30;;
14098;SDS011;7126;48.458;7.930;2022-08-05T14:11:28;1.27;;;1.27;;
14098;SDS011;7126;48.458;7.930;2022-08-05T14:13:54;1.48;;;1.48;;
14098;SDS011;7126;48.458;7.930;2022-08-05T14:16:20;1.20;;;1.20;;
14098;SDS011;7126;48.458;7.930;2022-08-05T14:18:46;1.20;;;1.20;;
14098;SDS011;7126;48.458;7.930;2022-08-05T14:21:12;1.17;;;1.17;;
14098;SDS011;7126;48.458;7.930;2022-08-05T14:23:37;1.60;;;1.60;;
14098;SDS011;7126;48.458;7.930;2022-08-05T14:26:03;1.50;;;1.50;;
14098;SDS011;7126;48.458;7.930;2022-08-05T14:28:29;1.45;;;1.38;;
14098;SDS011;7126;48.458;7.930;2022-08-05T14:30:55;1.08;;;1.08;;
14098;SDS011;7126;48.458;7.930;2022-08-05T14:33:24;1.60;;;1.60;;
14098;SDS011;7126;48.458;7.930;2022-08-05T14:35:50;1.52;;;1.42;;
14098;SDS011;7126;48.458;7.930;2022-08-05T14:38:15;1.30;;;1.30;;
14098;SDS011;7126;48.458;7.930;2022-08-05T14:40:41;1.52;;;1.42;;
14098;SDS011;7126;48.458;7.930;2022-08-05T14:43:07;2.13;;;1.40;;
14098;SDS011;7126;48.458;7.930;2022-08-05T14:45:32;2.13;;;1.50;;
14098;SDS011;7126;48.458;7.930;2022-08-05T14:47:58;1.75;;;1.20;;
14098;SDS011;7126;48.458;7.930;2022-08-05T14:50:23;1.80;;;1.70;;
14098;SDS011;7126;48.458;7.930;2022-08-05T14:52:49;1.67;;;1.52;;
14098;SDS011;7126;48.458;7.930;2022-08-05T14:55:14;1.70;;;1.60;;
14098;SDS011;7126;48.458;7.930;2022-08-05T14:57:40;1.38;;;1.27;;
14098;SDS011;7126;48.458;7.930;2022-08-05T15:00:06;1.25;;;1.25;;
14098;SDS011;7126;48.458;7.930;2022-08-05T15:02:32;1.40;;;1.40;;
14098;SDS011;7126;48.458;7.930;2022-08-05T15:04:58;1.50;;;1.50;;
14098;SDS011;7126;48.458;7.930;2022-08-05T15:07:23;1.50;;;1.50;;
14098;SDS011;7126;48.458;7.930;2022-08-05T15:09:49;3.53;;;1.40;;
14098;SDS011;7126;48.458;7.930;2022-08-05T15:12:14;2.58;;;1.23;;
14098;SDS011;7126;48.458;7.930;2022-08-05T15:14:40;1.30;;;1.30;;
14098;SDS011;7126;48.458;7.930;2022-08-05T15:17:05;1.45;;;1.35;;
14098;SDS011;7126;48.458;7.930;2022-08-05T15:19:32;1.00;;;1.00;;
14098;SDS011;7126;48.458;7.930;2022-08-05T15:21:58;1.30;;;1.30;;
14098;SDS011;7126;48.458;7.930;2022-08-05T15:24:24;1.20;;;1.20;;
14098;SDS011;7126;48.458;7.930;2022-08-05T15:26:50;1.35;;;1.35;;
14098;SDS011;7126;48.458;7.930;2022-08-05T15:29:16;1.08;;;1.08;;
14098;SDS011;7126;48.458;7.930;2022-08-05T15:31:41;1.10;;;1.10;;
14098;SDS011;7126;48.458;7.930;2022-08-05T15:34:07;1.27;;;1.17;;
14098;SDS011;7126;48.458;7.930;2022-08-05T15:36:32;1.20;;;1.08;;
14098;SDS011;7126;48.458;7.930;2022-08-05T15:38:58;1.40;;;1.40;;
14098;SDS011;7126;48.458;7.930;2022-08-05T15:41:23;1.52;;;1.52;;
14098;SDS011;7126;48.458;7.930;2022-08-05T15:43:50;1.38;;;1.30;;
14098;SDS011;7126;48.458;7.930;2022-08-05T15:46:18;1.52;;;1.50;;
14098;SDS011;7126;48.458;7.930;2022-08-05T15:48:44;2.33;;;1.42;;
14098;SDS011;7126;48.458;7.930;2022-08-05T15:51:10;1.05;;;1.05;;
14098;SDS011;7126;48.458;7.930;2022-08-05T15:53:35;1.20;;;1.20;;
14098;SDS011;7126;48.458;7.930;2022-08-05T15:56:01;1.15;;;1.15;;
14098;SDS011;7126;48.458;7.930;2022-08-05T15:58:28;1.63;;;1.52;;